createdAt,value
2023-04-27T00:00:27.052Z,215.86
2023-04-27T00:01:27.067Z,214.19
2023-04-27T00:02:27.191Z,214.23
2023-04-27T00:03:27.287Z,212.85
2023-04-27T00:04:27.336Z,214.05
2023-04-27T00:05:27.184Z,213.06
2023-04-27T00:06:27.056Z,214.69
2023-04-27T00:07:27.092Z,213.10
2023-04-27T00:08:27.094Z,214.41
2023-04-27T00:09:27.107Z,214.69
2023-04-27T00:10:27.120Z,213.84
2023-04-27T00:11:27.084Z,213.54
2023-04-27T00:12:27.098Z,213.13
2023-04-27T00:13:27.100Z,215.58
2023-04-27T00:14:27.114Z,213.81
2023-04-27T00:15:27.123Z,214.88
2023-04-27T00:16:27.129Z,213.60
2023-04-27T00:17:27.100Z,213.66
2023-04-27T00:18:27.122Z,214.66
2023-04-27T00:19:27.122Z,214.85
2023-04-27T00:20:27.500Z,213.31
2023-04-27T00:21:27.146Z,214.07
2023-04-27T00:22:27.143Z,214.85
2023-04-27T00:23:27.161Z,214.52
2023-04-27T00:24:27.193Z,214.79
2023-04-27T00:25:27.158Z,212.40
2023-04-27T00:26:27.182Z,213.65
2023-04-27T00:27:27.143Z,213.90
2023-04-27T00:28:27.199Z,213.92
2023-04-27T00:29:27.204Z,213.65
2023-04-27T00:30:27.457Z,214.55
2023-04-27T00:31:27.205Z,212.24
2023-04-27T00:32:27.192Z,212.60
2023-04-27T00:33:27.165Z,212.64
2023-04-27T00:34:27.176Z,212.31
2023-04-27T00:35:27.541Z,211.06
2023-04-27T00:36:27.196Z,213.48
2023-04-27T00:37:27.189Z,213.22
2023-04-27T00:38:27.198Z,211.49
2023-04-27T00:39:27.214Z,211.92
2023-04-27T00:40:27.538Z,212.33
2023-04-27T00:41:27.180Z,210.66
2023-04-27T00:42:27.240Z,210.17
2023-04-27T00:43:27.203Z,211.07
2023-04-27T00:44:27.204Z,210.83
2023-04-27T00:45:27.251Z,209.27
2023-04-27T00:46:27.309Z,210.45
2023-04-27T00:47:27.280Z,209.92
2023-04-27T00:48:27.228Z,211.79
2023-04-27T00:49:27.281Z,209.04
2023-04-27T00:50:27.288Z,210.14
2023-04-27T00:51:27.301Z,211.32
2023-04-27T00:52:27.305Z,211.11
2023-04-27T00:53:27.302Z,209.36
2023-04-27T00:54:27.317Z,209.67
2023-04-27T00:55:27.329Z,208.70
2023-04-27T00:56:27.348Z,208.49
2023-04-27T00:57:27.322Z,209.99
2023-04-27T00:58:27.336Z,209.02
2023-04-27T00:59:27.328Z,209.11
2023-04-27T01:00:27.345Z,208.37
2023-04-27T01:01:27.440Z,207.71
2023-04-27T01:02:27.463Z,209.07
2023-04-27T01:03:27.558Z,208.15
2023-04-27T01:04:27.465Z,208.63
2023-04-27T01:05:27.384Z,208.45
2023-04-27T01:06:27.387Z,207.93
2023-04-27T01:07:27.433Z,207.07
2023-04-27T01:08:27.467Z,206.52
2023-04-27T01:09:27.414Z,206.07
2023-04-27T01:10:27.500Z,207.15
2023-04-27T01:11:27.425Z,207.24
2023-04-27T01:12:27.468Z,207.35
2023-04-27T01:13:27.456Z,205.87
2023-04-27T01:14:27.468Z,206.65
2023-04-27T01:15:27.488Z,207.76
2023-04-27T01:16:27.524Z,205.81
2023-04-27T01:17:27.550Z,207.13
2023-04-27T01:18:27.500Z,207.40
2023-04-27T01:19:27.511Z,205.21
2023-04-27T01:20:27.520Z,205.51
2023-04-27T01:21:27.592Z,206.01
2023-04-27T01:22:27.586Z,204.31
2023-04-27T01:23:27.536Z,204.94
2023-04-27T01:24:27.578Z,206.63
2023-04-27T01:25:27.554Z,204.58
2023-04-27T01:26:27.625Z,205.97
2023-04-27T01:27:27.553Z,203.43
2023-04-27T01:28:27.586Z,204.77
2023-04-27T01:29:27.630Z,204.79
2023-04-27T01:30:27.646Z,205.09
2023-04-27T01:31:27.610Z,203.21
2023-04-27T01:32:27.655Z,202.26
2023-04-27T01:33:27.609Z,204.45
2023-04-27T01:34:27.652Z,203.39
2023-04-27T01:35:28.479Z,202.26
2023-04-27T01:36:27.753Z,203.71
2023-04-27T01:37:27.697Z,201.88
2023-04-27T01:38:27.670Z,203.70
2023-04-27T01:39:27.693Z,203.85
2023-04-27T01:40:27.766Z,201.80
2023-04-27T01:41:27.737Z,202.36
2023-04-27T01:42:27.703Z,203.33
2023-04-27T01:43:27.757Z,202.49
2023-04-27T01:44:27.768Z,203.05
2023-04-27T01:45:27.776Z,202.29
2023-04-27T01:46:27.810Z,203.23
2023-04-27T01:47:27.903Z,202.66
2023-04-27T01:48:27.795Z,203.38
2023-04-27T01:49:27.815Z,201.43
2023-04-27T01:50:27.871Z,202.04
2023-04-27T01:51:27.875Z,202.10
2023-04-27T01:52:27.894Z,201.67
2023-04-27T01:53:27.879Z,200.86
2023-04-27T01:54:28.797Z,201.37
2023-04-27T01:55:27.926Z,201.17
2023-04-27T01:56:27.914Z,199.93
2023-04-27T01:57:27.880Z,201.40
2023-04-27T01:58:27.926Z,201.10
2023-04-27T01:59:27.935Z,200.52
2023-04-27T02:00:27.899Z,199.92
2023-04-27T02:01:27.993Z,200.54
2023-04-27T02:02:27.985Z,200.56
2023-04-27T02:03:28.107Z,199.69
2023-04-27T02:04:28.010Z,201.18
2023-04-27T02:05:28.068Z,200.49
2023-04-27T02:06:27.926Z,198.13
2023-04-27T02:07:28.016Z,198.66
2023-04-27T02:08:27.958Z,199.00
2023-04-27T02:09:27.928Z,199.22
2023-04-27T02:10:27.943Z,199.05
2023-04-27T02:11:27.983Z,198.15
2023-04-27T02:12:27.936Z,198.73
2023-04-27T02:13:27.953Z,198.26
2023-04-27T02:14:27.946Z,198.73
2023-04-27T02:15:27.960Z,198.02
2023-04-27T02:16:28.006Z,199.49
2023-04-27T02:17:28.048Z,200.42
2023-04-27T02:18:27.992Z,198.24
2023-04-27T02:19:28.021Z,198.56
2023-04-27T02:20:28.064Z,198.68
2023-04-27T02:21:28.045Z,198.52
2023-04-27T02:22:28.083Z,196.80
2023-04-27T02:23:28.091Z,198.15
2023-04-27T02:24:28.102Z,198.58
2023-04-27T02:25:28.145Z,195.87
2023-04-27T02:26:28.107Z,198.93
2023-04-27T02:27:28.195Z,199.59
2023-04-27T02:28:28.198Z,198.45
2023-04-27T02:29:28.147Z,196.82
2023-04-27T02:30:28.209Z,198.28
2023-04-27T02:31:28.199Z,198.54
2023-04-27T02:32:28.221Z,198.17
2023-04-27T02:33:28.261Z,198.96
2023-04-27T02:34:28.275Z,196.86
2023-04-27T02:35:28.282Z,197.57
2023-04-27T02:36:28.286Z,196.64
2023-04-27T02:37:28.302Z,196.85
2023-04-27T02:38:28.329Z,197.00
2023-04-27T02:39:28.284Z,196.76
2023-04-27T02:40:28.349Z,196.41
2023-04-27T02:41:28.374Z,195.80
2023-04-27T02:42:28.342Z,198.58
2023-04-27T02:43:28.391Z,196.66
2023-04-27T02:44:28.413Z,196.89
2023-04-27T02:45:28.449Z,197.35
2023-04-27T02:46:28.541Z,195.29
2023-04-27T02:47:28.519Z,195.81
2023-04-27T02:48:28.507Z,196.37
2023-04-27T02:49:28.503Z,196.66
2023-04-27T02:50:28.510Z,195.72
2023-04-27T02:51:28.517Z,195.30
2023-04-27T02:52:28.544Z,195.96
2023-04-27T02:53:28.553Z,196.79
2023-04-27T02:54:28.569Z,195.85
2023-04-27T02:55:28.596Z,194.55
2023-04-27T02:56:28.609Z,193.91
2023-04-27T02:57:28.670Z,193.50
2023-04-27T02:58:28.661Z,194.00
2023-04-27T02:59:28.661Z,195.84
2023-04-27T03:00:28.708Z,194.30
2023-04-27T03:01:28.740Z,195.70
2023-04-27T03:02:28.876Z,195.65
2023-04-27T03:03:28.980Z,196.62
2023-04-27T03:04:29.014Z,195.68
2023-04-27T03:05:28.804Z,196.32
2023-04-27T03:06:28.835Z,194.71
2023-04-27T03:07:28.827Z,196.23
2023-04-27T03:08:28.888Z,196.24
2023-04-27T03:09:28.897Z,194.81
2023-04-27T03:10:28.956Z,193.90
2023-04-27T03:11:28.956Z,195.92
2023-04-27T03:12:28.960Z,195.28
2023-04-27T03:13:28.962Z,196.19
2023-04-27T03:14:29.022Z,197.78
2023-04-27T03:15:29.044Z,195.59
2023-04-27T03:16:29.097Z,195.70
2023-04-27T03:17:29.153Z,194.26
2023-04-27T03:18:29.123Z,195.50
2023-04-27T03:19:29.165Z,196.07
2023-04-27T03:20:29.179Z,195.65
2023-04-27T03:21:29.191Z,194.69
2023-04-27T03:22:29.234Z,194.36
2023-04-27T03:23:29.301Z,195.12
2023-04-27T03:24:29.240Z,195.10
2023-04-27T03:25:29.534Z,194.69
2023-04-27T03:26:29.293Z,194.58
2023-04-27T03:27:29.361Z,194.21
2023-04-27T03:28:29.430Z,195.36
2023-04-27T03:29:29.423Z,193.78
2023-04-27T03:30:29.428Z,195.87
2023-04-27T03:31:29.484Z,193.63
2023-04-27T03:32:29.548Z,194.33
2023-04-27T03:33:29.518Z,194.03
2023-04-27T03:34:29.513Z,194.42
2023-04-27T03:35:29.530Z,193.20
2023-04-27T03:36:29.571Z,192.27
2023-04-27T03:37:29.566Z,194.61
2023-04-27T03:38:29.614Z,194.11
2023-04-27T03:39:29.628Z,194.12
2023-04-27T03:40:29.753Z,194.55
2023-04-27T03:41:29.676Z,193.29
2023-04-27T03:42:29.689Z,193.04
2023-04-27T03:43:29.722Z,194.27
2023-04-27T03:44:29.760Z,192.26
2023-04-27T03:45:29.801Z,194.30
2023-04-27T03:46:29.875Z,191.85
2023-04-27T03:47:29.848Z,193.23
2023-04-27T03:48:29.839Z,193.59
2023-04-27T03:49:29.861Z,192.19
2023-04-27T03:50:30.247Z,192.20
2023-04-27T03:51:30.008Z,194.10
2023-04-27T03:52:29.960Z,193.81
2023-04-27T03:53:29.952Z,193.31
2023-04-27T03:54:29.973Z,193.80
2023-04-27T03:55:30.594Z,193.92
2023-04-27T03:56:30.040Z,194.68
2023-04-27T03:57:30.056Z,193.88
2023-04-27T03:58:30.056Z,194.47
2023-04-27T03:59:30.111Z,194.62
2023-04-27T04:00:30.107Z,193.06
2023-04-27T04:01:30.153Z,194.59
2023-04-27T04:02:30.355Z,193.64
2023-04-27T04:03:30.354Z,192.46
2023-04-27T04:04:30.425Z,194.74
2023-04-27T04:05:30.553Z,194.08
2023-04-27T04:06:30.307Z,192.57
2023-04-27T04:07:30.289Z,193.81
2023-04-27T04:08:30.378Z,193.49
2023-04-27T04:09:30.377Z,191.13
2023-04-27T04:10:30.419Z,192.53
2023-04-27T04:11:30.444Z,193.81
2023-04-27T04:12:30.505Z,192.06
2023-04-27T04:13:30.505Z,192.14
2023-04-27T04:14:30.574Z,190.57
2023-04-27T04:15:30.662Z,191.67
2023-04-27T04:16:30.681Z,192.73
2023-04-27T04:17:30.714Z,190.81
2023-04-27T04:18:30.756Z,192.18
2023-04-27T04:19:30.754Z,191.76
2023-04-27T04:20:31.073Z,191.74
2023-04-27T04:21:30.827Z,191.59
2023-04-27T04:22:30.846Z,191.69
2023-04-27T04:23:30.883Z,191.08
2023-04-27T04:24:30.896Z,191.37
2023-04-27T04:25:30.949Z,190.53
2023-04-27T04:26:30.951Z,191.06
2023-04-27T04:27:30.957Z,189.66
2023-04-27T04:28:31.018Z,190.06
2023-04-27T04:29:31.033Z,190.83
2023-04-27T04:30:31.091Z,190.10
2023-04-27T04:31:31.200Z,190.76
2023-04-27T04:32:31.214Z,188.82
2023-04-27T04:33:31.164Z,189.09
2023-04-27T04:34:31.236Z,190.02
2023-04-27T04:35:31.258Z,189.82
2023-04-27T04:36:31.272Z,189.35
2023-04-27T04:37:31.296Z,188.89
2023-04-27T04:38:31.343Z,188.42
2023-04-27T04:39:31.349Z,190.68
2023-04-27T04:40:31.356Z,186.81
2023-04-27T04:41:31.406Z,188.60
2023-04-27T04:42:31.462Z,187.15
2023-04-27T04:43:31.554Z,188.61
2023-04-27T04:44:31.490Z,188.17
2023-04-27T04:45:31.539Z,187.89
2023-04-27T04:46:31.592Z,190.14
2023-04-27T04:47:31.629Z,187.62
2023-04-27T04:48:31.607Z,188.83
2023-04-27T04:49:31.634Z,187.82
2023-04-27T04:50:31.691Z,188.78
2023-04-27T04:51:31.701Z,187.15
2023-04-27T04:52:31.701Z,187.61
2023-04-27T04:53:31.766Z,186.40
2023-04-27T04:54:31.795Z,179.46
2023-04-27T04:55:31.832Z,172.79
2023-04-27T04:56:31.867Z,168.75
2023-04-27T04:57:31.925Z,165.74
2023-04-27T04:58:31.954Z,160.75
2023-04-27T04:59:32.126Z,157.14
2023-04-27T05:00:32.078Z,153.00
2023-04-27T05:01:32.176Z,150.83
2023-04-27T05:02:32.267Z,147.47
2023-04-27T05:03:32.335Z,142.51
2023-04-27T05:04:32.565Z,138.51
2023-04-27T05:05:32.385Z,136.30
2023-04-27T05:06:32.416Z,132.51
2023-04-27T05:07:32.466Z,139.04
2023-04-27T05:08:32.572Z,138.22
2023-04-27T05:09:32.691Z,132.25
2023-04-27T05:10:33.108Z,124.29
2023-04-27T05:11:32.753Z,121.64
2023-04-27T05:12:32.801Z,120.22
2023-04-27T05:13:32.860Z,121.54
2023-04-27T05:14:32.909Z,120.78
2023-04-27T05:15:32.935Z,134.29
2023-04-27T05:16:32.985Z,125.96
2023-04-27T05:17:33.025Z,134.97
2023-04-27T05:18:33.049Z,129.52
2023-04-27T05:19:33.093Z,118.37
2023-04-27T05:20:33.111Z,120.80
2023-04-27T05:21:33.175Z,123.54
2023-04-27T05:22:33.228Z,122.54
2023-04-27T05:23:33.285Z,125.95
2023-04-27T05:24:33.358Z,130.28
2023-04-27T05:25:33.332Z,131.51
2023-04-27T05:26:33.355Z,128.93
2023-04-27T05:27:33.451Z,134.93
2023-04-27T05:28:33.483Z,138.93
2023-04-27T05:29:33.540Z,140.36
2023-04-27T05:30:33.580Z,143.03
2023-04-27T05:31:33.752Z,141.22
2023-04-27T05:32:33.809Z,145.39
2023-04-27T05:33:33.746Z,146.80
2023-04-27T05:34:33.773Z,145.25
2023-04-27T05:35:34.087Z,145.53
2023-04-27T05:36:33.899Z,145.86
2023-04-27T05:37:34.326Z,145.00
2023-04-27T05:38:34.311Z,147.09
2023-04-27T05:39:34.056Z,145.65
2023-04-27T05:40:34.100Z,146.02
2023-04-27T05:41:34.139Z,149.94
2023-04-27T05:42:34.244Z,149.62
2023-04-27T05:43:34.258Z,150.23
2023-04-27T05:44:34.374Z,148.62
2023-04-27T05:45:34.515Z,150.77
2023-04-27T05:46:35.389Z,149.65
2023-04-27T05:47:34.553Z,156.78
2023-04-27T05:48:34.460Z,167.67
2023-04-27T05:49:34.442Z,164.69
2023-04-27T05:50:34.445Z,169.75
2023-04-27T05:51:34.447Z,172.05
2023-04-27T05:52:36.352Z,175.15
2023-04-27T05:53:34.422Z,175.78
2023-04-27T05:54:34.440Z,179.02
2023-04-27T05:55:34.470Z,182.49
2023-04-27T05:56:34.384Z,190.86
2023-04-27T05:57:34.503Z,208.31
2023-04-27T05:58:34.476Z,206.93
2023-04-27T05:59:34.420Z,211.84
2023-04-27T06:00:34.472Z,217.03
2023-04-27T06:01:34.453Z,219.30
2023-04-27T06:02:34.499Z,230.77
2023-04-27T06:03:34.543Z,240.65
2023-04-27T06:04:34.370Z,231.20
2023-04-27T06:05:34.462Z,244.98
2023-04-27T06:06:34.300Z,247.71
2023-04-27T06:07:34.314Z,250.85
2023-04-27T06:08:34.328Z,247.57
2023-04-27T06:09:34.299Z,245.54
2023-04-27T06:10:34.298Z,246.46
2023-04-27T06:11:34.264Z,246.12
2023-04-27T06:12:34.274Z,243.87
2023-04-27T06:13:34.284Z,245.64
2023-04-27T06:14:34.256Z,244.70
2023-04-27T06:15:34.319Z,241.44
2023-04-27T06:16:34.302Z,244.81
2023-04-27T06:17:34.262Z,244.78
2023-04-27T06:18:34.238Z,243.79
2023-04-27T06:19:34.232Z,241.25
2023-04-27T06:20:34.603Z,242.72
2023-04-27T06:21:34.225Z,244.36
2023-04-27T06:22:34.229Z,244.93
2023-04-27T06:23:34.217Z,247.73
2023-04-27T06:24:34.217Z,248.90
2023-04-27T06:25:34.216Z,247.70
2023-04-27T06:26:34.232Z,246.19
2023-04-27T06:27:34.171Z,246.75
2023-04-27T06:28:34.241Z,243.24
2023-04-27T06:29:34.182Z,246.39
2023-04-27T06:30:34.175Z,244.17
2023-04-27T06:31:34.209Z,244.58
2023-04-27T06:32:34.189Z,244.43
2023-04-27T06:33:34.108Z,241.25
2023-04-27T06:34:34.137Z,241.13
2023-04-27T06:35:34.610Z,244.11
2023-04-27T06:36:34.099Z,245.24
2023-04-27T06:37:34.111Z,244.75
2023-04-27T06:38:34.114Z,241.14
2023-04-27T06:39:34.114Z,239.03
2023-04-27T06:40:34.123Z,239.99
2023-04-27T06:41:34.083Z,238.81
2023-04-27T06:42:34.071Z,238.77
2023-04-27T06:43:34.086Z,235.95
2023-04-27T06:44:34.037Z,236.94
2023-04-27T06:45:34.029Z,237.07
2023-04-27T06:46:34.074Z,237.65
2023-04-27T06:47:33.998Z,237.64
2023-04-27T06:48:34.058Z,236.96
2023-04-27T06:49:34.033Z,250.55
2023-04-27T06:50:34.036Z,254.55
2023-04-27T06:51:34.039Z,239.62
2023-04-27T06:52:34.012Z,232.63
2023-04-27T06:53:34.093Z,224.16
2023-04-27T06:54:34.013Z,224.77
2023-04-27T06:55:34.016Z,223.19
2023-04-27T06:56:33.970Z,224.76
2023-04-27T06:57:33.987Z,232.55
2023-04-27T06:58:33.972Z,236.31
2023-04-27T06:59:33.996Z,240.47
2023-04-27T07:00:34.622Z,244.40
2023-04-27T07:01:34.211Z,244.19
2023-04-27T07:02:34.052Z,244.99
2023-04-27T07:03:34.098Z,248.41
2023-04-27T07:04:34.027Z,238.56
2023-04-27T07:05:33.982Z,233.83
2023-04-27T07:06:34.146Z,229.46
2023-04-27T07:07:34.350Z,226.68
2023-04-27T07:08:34.021Z,222.99
2023-04-27T07:09:34.308Z,234.10
2023-04-27T07:10:34.156Z,234.21
2023-04-27T07:11:34.136Z,236.81
2023-04-27T07:12:34.158Z,243.66
2023-04-27T07:13:34.189Z,240.46
2023-04-27T07:14:34.252Z,241.67
2023-04-27T07:15:34.298Z,239.07
2023-04-27T07:16:34.455Z,235.81
2023-04-27T07:17:34.425Z,235.25
2023-04-27T07:18:34.481Z,234.69
2023-04-27T07:19:34.494Z,232.53
2023-04-27T07:20:34.539Z,229.25
2023-04-27T07:21:34.650Z,234.16
2023-04-27T07:22:34.657Z,230.90
2023-04-27T07:23:34.729Z,231.84
2023-04-27T07:24:34.780Z,230.98
2023-04-27T07:25:34.839Z,230.83
2023-04-27T07:26:35.162Z,226.91
2023-04-27T07:27:34.925Z,224.70
2023-04-27T07:28:35.006Z,219.39
2023-04-27T07:29:35.058Z,220.24
2023-04-27T07:30:35.102Z,217.10
2023-04-27T07:31:35.182Z,215.03
2023-04-27T07:32:35.338Z,210.63
2023-04-27T07:33:35.230Z,214.47
2023-04-27T07:34:49.034Z,210.37
2023-04-27T07:35:36.313Z,206.40
2023-04-27T07:36:35.320Z,207.64
2023-04-27T07:37:35.333Z,205.08
2023-04-27T07:38:35.283Z,200.65
2023-04-27T07:39:35.277Z,197.37
2023-04-27T07:40:35.297Z,204.07
2023-04-27T07:41:35.266Z,212.35
2023-04-27T07:42:35.271Z,202.22
2023-04-27T07:43:35.335Z,206.02
2023-04-27T07:44:35.324Z,202.49
2023-04-27T07:45:35.373Z,202.76
2023-04-27T12:17:30.748Z,25.00
2023-04-27T12:18:30.801Z,25.00
2023-04-27T12:19:30.748Z,25.00
2023-04-27T12:20:30.773Z,25.00
2023-04-27T12:21:30.859Z,25.00
2023-04-27T12:22:30.863Z,0.00
2023-04-27T12:23:30.837Z,0.00
2023-04-27T12:24:30.848Z,0.00
2023-04-27T12:25:30.860Z,0.00
2023-04-27T12:26:30.854Z,0.00
2023-04-27T12:27:30.835Z,0.00
2023-04-27T12:28:30.805Z,0.00
2023-04-27T12:29:30.844Z,0.00
2023-04-27T12:30:30.817Z,0.00
2023-04-27T12:31:30.828Z,0.00
2023-04-27T12:32:30.754Z,0.00
2023-04-27T12:33:30.799Z,0.00
2023-04-27T12:34:30.788Z,0.00
2023-04-27T12:35:30.760Z,0.00
2023-04-27T12:36:30.762Z,0.00
2023-04-27T12:37:30.758Z,0.00
2023-04-27T12:38:30.772Z,0.00
2023-04-27T12:39:30.704Z,0.00
2023-04-27T12:40:30.764Z,0.00
2023-04-27T12:41:30.691Z,0.00
2023-04-27T12:42:30.741Z,0.00
2023-04-27T12:43:30.691Z,0.00
2023-04-27T12:44:30.705Z,0.00
2023-04-27T12:45:30.690Z,0.00
2023-04-27T12:46:30.686Z,17.78
2023-04-27T12:48:30.737Z,25.00
2023-04-27T12:49:30.693Z,26.33
2023-04-27T12:50:30.710Z,25.00
2023-04-27T12:51:30.657Z,25.00
2023-04-27T12:52:30.638Z,33.05
2023-04-27T12:53:30.661Z,25.39
2023-04-27T12:54:30.645Z,32.38
2023-04-27T12:55:34.211Z,33.89
2023-04-27T12:56:30.632Z,32.83
2023-04-27T12:57:30.604Z,34.81
2023-04-27T12:58:30.654Z,40.07
2023-04-27T12:59:30.621Z,28.15
2023-04-27T13:00:30.613Z,21.51
2023-04-27T13:01:37.658Z,57.81
2023-04-27T13:02:30.932Z,41.88
2023-04-27T13:03:30.714Z,25.25
2023-04-27T13:04:30.816Z,20.26
2023-04-27T13:05:32.047Z,21.38
2023-04-27T13:06:30.586Z,20.56
2023-04-27T13:07:30.740Z,28.96
2023-04-27T13:08:30.532Z,28.79
2023-04-27T13:09:30.550Z,34.83
2023-04-27T13:10:30.585Z,38.88
2023-04-27T13:11:30.527Z,19.91
2023-04-27T13:12:30.523Z,42.84
2023-04-27T13:13:30.529Z,37.42
2023-04-27T13:14:30.532Z,52.97
2023-04-27T13:15:30.494Z,40.10
2023-04-27T13:16:30.694Z,27.76
2023-04-27T13:17:30.651Z,32.60
2023-04-27T13:18:32.255Z,36.88
2023-04-27T13:19:30.662Z,41.37
2023-04-27T13:20:30.688Z,30.36
2023-04-27T13:21:31.349Z,43.71
2023-04-27T13:22:30.694Z,39.74
2023-04-27T13:23:30.633Z,41.31
2023-04-27T13:24:30.654Z,30.75
2023-04-27T13:25:30.619Z,38.00
2023-04-27T13:26:30.599Z,66.76
2023-04-27T13:27:30.629Z,34.09
2023-04-27T13:28:30.650Z,25.50
2023-04-27T13:29:30.577Z,40.70
2023-04-27T13:30:30.602Z,50.37
2023-04-27T13:31:30.625Z,33.95
2023-04-27T13:32:30.660Z,62.23
2023-04-27T13:33:30.681Z,47.84
2023-04-27T13:34:30.605Z,58.81
2023-04-27T13:35:30.576Z,34.66
2023-04-27T13:36:30.585Z,24.48
2023-04-27T13:37:30.587Z,25.00
2023-04-27T13:38:30.540Z,52.96
2023-04-27T13:39:30.544Z,68.78
2023-04-27T13:40:30.614Z,74.45
2023-04-27T13:41:30.561Z,50.07
2023-04-27T13:42:30.516Z,62.82
2023-04-27T13:43:30.530Z,51.67
2023-04-27T13:44:30.542Z,79.23
2023-04-27T13:45:30.544Z,46.99
2023-04-27T13:46:30.574Z,46.53
2023-04-27T13:47:30.518Z,43.02
2023-04-27T13:48:30.570Z,49.29
2023-04-27T13:49:30.477Z,47.92
2023-04-27T13:50:30.484Z,36.31
2023-04-27T13:51:30.582Z,44.48
2023-04-27T13:52:30.624Z,30.04
2023-04-27T13:53:30.693Z,35.40
2023-04-27T13:54:30.746Z,48.53
2023-04-27T13:55:30.759Z,57.51
2023-04-27T13:56:31.334Z,47.90
2023-04-27T13:57:30.938Z,29.77
2023-04-27T13:58:30.935Z,31.93
2023-04-27T13:59:31.059Z,48.97
2023-04-27T14:00:31.190Z,38.85
2023-04-27T14:01:31.279Z,40.64
2023-04-27T14:02:31.330Z,51.47
2023-04-27T14:03:31.403Z,38.74
2023-04-27T14:04:31.469Z,28.21
2023-04-27T14:05:31.351Z,30.75
2023-04-27T14:06:31.396Z,41.12
2023-04-27T14:07:31.463Z,36.64
2023-04-27T14:08:31.518Z,27.62
2023-04-27T14:09:31.573Z,54.08
2023-04-27T14:10:31.717Z,39.13
2023-04-27T14:11:33.949Z,25.87
2023-04-27T14:12:32.725Z,27.06
2023-04-27T14:13:31.726Z,26.94
2023-04-27T14:14:31.699Z,26.97
2023-04-27T14:15:31.669Z,33.69
2023-04-27T14:16:31.630Z,73.85
2023-04-27T14:17:31.754Z,63.35
2023-04-27T14:18:32.667Z,67.68
2023-04-27T14:19:31.654Z,64.32
2023-04-27T14:20:31.656Z,69.80
2023-04-27T14:21:32.379Z,65.52
2023-04-27T14:22:31.750Z,49.92
2023-04-27T14:23:31.845Z,47.89
2023-04-27T14:24:31.928Z,50.70
2023-04-27T14:25:31.926Z,37.69
2023-04-27T14:26:31.997Z,42.34
2023-04-27T14:27:32.371Z,41.85
2023-04-27T14:28:32.118Z,52.76
2023-04-27T14:29:32.181Z,34.71
2023-04-27T14:30:32.296Z,57.41
2023-04-27T14:31:32.344Z,40.14
2023-04-27T14:32:32.379Z,27.94
2023-04-27T14:33:32.359Z,40.04
2023-04-27T14:34:32.366Z,38.76
2023-04-27T14:35:32.473Z,33.27
2023-04-27T14:36:32.547Z,37.15
2023-04-27T14:37:32.544Z,45.13
2023-04-27T14:38:32.609Z,59.06
2023-04-27T14:39:32.574Z,57.87
2023-04-27T14:40:32.675Z,40.46
2023-04-27T14:41:32.667Z,66.61
2023-04-27T14:42:32.888Z,43.79
2023-04-27T14:43:32.771Z,47.46
2023-04-27T14:44:32.848Z,38.01
2023-04-27T14:45:40.249Z,35.48
2023-04-27T14:46:33.891Z,21.08
2023-04-27T14:47:32.896Z,6.50
2023-04-27T14:48:32.824Z,4.67
2023-04-27T14:49:32.786Z,0.00
2023-04-27T14:50:32.821Z,0.00
2023-04-27T14:51:32.849Z,17.95
2023-04-27T14:52:32.828Z,28.33
2023-04-27T14:53:32.796Z,30.11
2023-04-27T14:54:32.767Z,26.03
2023-04-27T14:55:32.718Z,29.59
2023-04-27T14:56:32.786Z,30.06
2023-04-27T14:57:32.768Z,25.76
2023-04-27T14:58:32.714Z,29.37
2023-04-27T14:59:32.752Z,39.48
2023-04-27T15:00:32.705Z,25.94
2023-04-27T15:01:32.742Z,36.83
2023-04-27T15:02:34.247Z,30.87
2023-04-27T15:03:32.886Z,30.57
2023-04-27T15:04:32.758Z,38.20
2023-04-27T15:05:32.757Z,44.29
2023-04-27T15:06:32.749Z,28.73
2023-04-27T15:07:32.741Z,44.57
2023-04-27T15:08:34.324Z,33.13
2023-04-27T15:09:32.721Z,32.80
2023-04-27T15:10:32.750Z,27.17
2023-04-27T15:11:32.729Z,32.17
2023-04-27T15:12:32.718Z,35.91
2023-04-27T15:13:32.736Z,31.98
2023-04-27T15:14:32.738Z,30.88
2023-04-27T15:15:32.723Z,33.31
2023-04-27T15:16:32.768Z,26.24
2023-04-27T15:17:32.832Z,27.96
2023-04-27T15:18:32.718Z,25.00
2023-04-27T15:19:32.774Z,27.97
2023-04-27T15:20:32.776Z,28.85
2023-04-27T15:21:32.745Z,33.88
2023-04-27T15:22:32.761Z,31.11
2023-04-27T15:23:32.718Z,30.60
2023-04-27T15:24:32.778Z,25.00
2023-04-27T15:25:32.774Z,27.05
2023-04-27T15:26:32.789Z,28.32
2023-04-27T15:27:32.900Z,25.64
2023-04-27T15:28:32.805Z,33.99
2023-04-27T15:29:32.804Z,34.46
2023-04-27T15:30:32.793Z,25.00
2023-04-27T15:31:32.873Z,33.01
2023-04-27T15:32:32.885Z,26.74
2023-04-27T15:33:32.921Z,25.00
2023-04-27T15:34:32.823Z,29.08
2023-04-27T15:35:32.884Z,26.96
2023-04-27T15:36:32.848Z,25.00
2023-04-27T15:37:32.843Z,27.19
2023-04-27T15:38:32.890Z,25.18
2023-04-27T15:39:32.874Z,27.66
2023-04-27T15:40:32.918Z,32.81
2023-04-27T15:41:32.911Z,26.30
2023-04-27T15:42:32.926Z,28.23
2023-04-27T15:43:32.920Z,30.98
2023-04-27T15:44:32.925Z,39.40
2023-04-27T15:45:32.922Z,37.00
2023-04-27T15:46:33.046Z,36.83
2023-04-27T15:47:32.940Z,32.50
2023-04-27T15:48:33.438Z,41.90
2023-04-27T15:49:37.807Z,34.99
2023-04-27T15:50:33.947Z,35.48
2023-04-27T15:51:32.947Z,37.01
2023-04-27T15:52:32.959Z,41.43
2023-04-27T15:53:33.986Z,35.91
2023-04-27T15:54:33.929Z,38.49
2023-04-27T15:55:32.906Z,38.47
2023-04-27T15:56:32.918Z,34.12
2023-04-27T15:57:32.935Z,30.21
2023-04-27T15:58:32.884Z,40.46
2023-04-27T15:59:32.892Z,54.69
2023-04-27T16:00:32.950Z,45.38
2023-04-27T16:01:33.019Z,43.59
2023-04-27T16:02:32.962Z,49.11
2023-04-27T16:03:32.949Z,47.14
2023-04-27T16:04:32.934Z,47.12
2023-04-27T16:05:32.831Z,51.34
2023-04-27T16:06:32.851Z,47.17
2023-04-27T16:07:32.791Z,41.75
2023-04-27T16:08:33.411Z,49.14
2023-04-27T16:09:32.865Z,46.94
2023-04-27T16:10:32.796Z,43.37
2023-04-27T16:11:32.797Z,37.52
2023-04-27T16:12:32.773Z,36.35
2023-04-27T16:13:32.927Z,36.80
2023-04-27T16:14:32.816Z,40.77
2023-04-27T16:15:32.803Z,36.38
2023-04-27T16:16:32.840Z,29.77
2023-04-27T16:17:32.841Z,38.39
2023-04-27T16:18:32.923Z,38.11
2023-04-27T16:19:32.783Z,41.51
2023-04-27T16:20:35.055Z,40.80
2023-04-27T16:21:32.969Z,52.86
2023-04-27T16:22:32.744Z,43.20
2023-04-27T16:23:32.748Z,39.87
2023-04-27T16:24:32.732Z,44.45
2023-04-27T16:25:32.711Z,40.18
2023-04-27T16:26:32.688Z,51.08
2023-04-27T16:27:32.726Z,36.90
2023-04-27T16:28:32.924Z,38.36
2023-04-27T16:29:32.693Z,33.37
2023-04-27T16:30:32.697Z,44.65
2023-04-27T16:31:32.648Z,36.76
2023-04-27T16:32:34.514Z,33.07
2023-04-27T16:33:32.649Z,33.33
2023-04-27T16:34:32.648Z,31.59
2023-04-27T16:35:32.629Z,24.41
2023-04-27T16:36:32.644Z,19.00
2023-04-27T16:37:32.654Z,21.35
2023-04-27T16:38:32.653Z,25.03
2023-04-27T16:39:32.681Z,25.10
2023-04-27T16:40:32.589Z,30.76
2023-04-27T16:41:32.596Z,27.92
2023-04-27T16:42:32.606Z,27.69
2023-04-27T16:43:32.928Z,27.91
2023-04-27T16:44:32.626Z,28.62
2023-04-27T16:45:32.602Z,25.77
2023-04-27T16:46:32.620Z,30.38
2023-04-27T16:47:32.675Z,61.36
2023-04-27T16:48:32.546Z,74.88
2023-04-27T16:49:32.564Z,51.19
2023-04-27T16:50:32.532Z,53.67
2023-04-27T16:51:32.532Z,86.42
2023-04-27T16:52:32.500Z,110.64
2023-04-27T16:53:32.544Z,78.37
2023-04-27T16:54:32.511Z,73.96
2023-04-27T16:55:32.487Z,97.34
2023-04-27T16:56:32.503Z,87.47
2023-04-27T16:57:32.469Z,92.43
2023-04-27T16:58:32.925Z,108.85
2023-04-27T16:59:32.431Z,99.95
2023-04-27T17:00:32.507Z,86.64
2023-04-27T17:01:32.552Z,115.30
2023-04-27T17:02:32.521Z,129.93
2023-04-27T17:03:32.554Z,145.56
2023-04-27T17:04:32.444Z,148.84
2023-04-27T17:05:32.419Z,181.58
2023-04-27T17:06:32.432Z,157.15
2023-04-27T17:07:32.445Z,168.85
2023-04-27T17:08:32.438Z,174.57
2023-04-27T17:09:32.385Z,174.68
2023-04-27T17:10:32.449Z,168.33